VCP54Y EGHQ-EGCC
Flight info
| Callsign | VCP54Y |
|---|---|
| Flight time | 0h 53m |
| Altitude | 22000 |
| Route | EPACE P16 AXCIS |
| Aircraft | DH8D/M-SDE2E3FGRY/H |
Departure
| Time | 2026-05-06 13:29 |
|---|---|
| Airport | Cornwall Airport Newquay (EGHQ) |
Arrival
| Time | 2026-05-06 14:22 |
|---|---|
| Airport | Manchester Airport (EGCC) |
| Time | Latitude | Longitude | Altitude | Speed | Heading |
|---|---|---|---|---|---|
| 2026-05-06 12:59 | 50.44651 | -5.00380 | 331 ft | 0 kts | 78° |
| 2026-05-06 13:19 | 50.44651 | -5.00379 | 330 ft | 0 kts | 78° |
| 2026-05-06 13:19 | 50.44650 | -5.00385 | 330 ft | 2 kts | 78° |
| 2026-05-06 13:20 | 50.44647 | -5.00409 | 331 ft | 2 kts | 77° |
| 2026-05-06 13:20 | 50.44644 | -5.00432 | 330 ft | 2 kts | 78° |
| 2026-05-06 13:20 | 50.44642 | -5.00454 | 330 ft | 2 kts | 87° |
| 2026-05-06 13:20 | 50.44642 | -5.00478 | 330 ft | 2 kts | 97° |
| 2026-05-06 13:21 | 50.44645 | -5.00500 | 329 ft | 2 kts | 108° |
| 2026-05-06 13:21 | 50.44651 | -5.00522 | 328 ft | 2 kts | 118° |
| 2026-05-06 13:21 | 50.44653 | -5.00530 | 328 ft | 0 kts | 121° |
| 2026-05-06 13:23 | 50.44653 | -5.00529 | 328 ft | 2 kts | 121° |
| 2026-05-06 13:24 | 50.44625 | -5.00457 | 330 ft | 8 kts | 121° |
| 2026-05-06 13:24 | 50.44598 | -5.00383 | 333 ft | 7 kts | 120° |
| 2026-05-06 13:24 | 50.44550 | -5.00256 | 336 ft | 23 kts | 121° |
| 2026-05-06 13:24 | 50.44447 | -4.99988 | 344 ft | 28 kts | 118° |
| 2026-05-06 13:25 | 50.44347 | -4.99717 | 350 ft | 29 kts | 120° |
| 2026-05-06 13:25 | 50.44245 | -4.99446 | 356 ft | 28 kts | 120° |
| 2026-05-06 13:25 | 50.44146 | -4.99182 | 363 ft | 27 kts | 120° |
| 2026-05-06 13:25 | 50.44051 | -4.98931 | 371 ft | 26 kts | 120° |
| 2026-05-06 13:26 | 50.43962 | -4.98694 | 381 ft | 24 kts | 121° |
| 2026-05-06 13:26 | 50.43876 | -4.98469 | 387 ft | 21 kts | 119° |
| 2026-05-06 13:26 | 50.43810 | -4.98290 | 390 ft | 16 kts | 122° |
| 2026-05-06 13:26 | 50.43754 | -4.98145 | 392 ft | 15 kts | 118° |
| 2026-05-06 13:27 | 50.43698 | -4.97996 | 394 ft | 16 kts | 121° |
| 2026-05-06 13:27 | 50.43625 | -4.97883 | 395 ft | 14 kts | 151° |
| 2026-05-06 13:27 | 50.43538 | -4.97852 | 395 ft | 11 kts | 181° |
| 2026-05-06 13:27 | 50.43466 | -4.97883 | 395 ft | 6 kts | 231° |
| 2026-05-06 13:28 | 50.43472 | -4.97927 | 395 ft | 3 kts | 299° |
| 2026-05-06 13:28 | 50.43496 | -4.97992 | 394 ft | 26 kts | 301° |
| 2026-05-06 13:28 | 50.43750 | -4.98670 | 383 ft | 112 kts | 301° |
| 2026-05-06 13:28 | 50.44228 | -4.99927 | 574 ft | 143 kts | 300° |
| 2026-05-06 13:29 | 50.44766 | -5.01278 | 1119 ft | 152 kts | 302° |
| 2026-05-06 13:29 | 50.45323 | -5.02672 | 1794 ft | 155 kts | 303° |
| 2026-05-06 13:29 | 50.45862 | -5.04090 | 2487 ft | 154 kts | 302° |
| 2026-05-06 13:29 | 50.46526 | -5.05418 | 2967 ft | 164 kts | 329° |
| 2026-05-06 13:30 | 50.47621 | -5.05844 | 3410 ft | 168 kts | 9° |
| 2026-05-06 13:30 | 50.48660 | -5.04975 | 3802 ft | 179 kts | 44° |
| 2026-05-06 13:30 | 50.49538 | -5.03508 | 4179 ft | 192 kts | 49° |
| 2026-05-06 13:30 | 50.50423 | -5.01913 | 4801 ft | 192 kts | 50° |
| 2026-05-06 13:31 | 50.51282 | -5.00306 | 5370 ft | 196 kts | 51° |
| 2026-05-06 13:31 | 50.52152 | -4.98649 | 5922 ft | 198 kts | 51° |
| 2026-05-06 13:31 | 50.53032 | -4.96955 | 6464 ft | 201 kts | 52° |
| 2026-05-06 13:31 | 50.53901 | -4.95265 | 7035 ft | 203 kts | 52° |
| 2026-05-06 13:32 | 50.54783 | -4.93537 | 7599 ft | 204 kts | 52° |
| 2026-05-06 13:32 | 50.55671 | -4.91788 | 8171 ft | 205 kts | 52° |
| 2026-05-06 13:32 | 50.56565 | -4.90018 | 8698 ft | 207 kts | 51° |
| 2026-05-06 13:32 | 50.57457 | -4.88249 | 9222 ft | 209 kts | 51° |
| 2026-05-06 13:33 | 50.58361 | -4.86450 | 9787 ft | 210 kts | 51° |
| 2026-05-06 13:33 | 50.59259 | -4.84659 | 10338 ft | 212 kts | 51° |
| 2026-05-06 13:33 | 50.60169 | -4.82844 | 10814 ft | 218 kts | 51° |
| 2026-05-06 13:33 | 50.61148 | -4.80888 | 11076 ft | 233 kts | 51° |
| 2026-05-06 13:34 | 50.62163 | -4.78860 | 11432 ft | 244 kts | 51° |
| 2026-05-06 13:34 | 50.63231 | -4.76723 | 11870 ft | 250 kts | 51° |
| 2026-05-06 13:34 | 50.64296 | -4.74588 | 12475 ft | 249 kts | 51° |
| 2026-05-06 13:34 | 50.65359 | -4.72452 | 13008 ft | 251 kts | 51° |
| 2026-05-06 13:35 | 50.66427 | -4.70304 | 13530 ft | 253 kts | 51° |
| 2026-05-06 13:35 | 50.67515 | -4.68114 | 14003 ft | 255 kts | 51° |
| 2026-05-06 13:35 | 50.68619 | -4.65890 | 14488 ft | 258 kts | 51° |
| 2026-05-06 13:35 | 50.69717 | -4.63676 | 14950 ft | 260 kts | 51° |
| 2026-05-06 13:36 | 50.70835 | -4.61419 | 15416 ft | 261 kts | 51° |
| 2026-05-06 13:36 | 50.71971 | -4.59124 | 15863 ft | 263 kts | 51° |
| 2026-05-06 13:36 | 50.73097 | -4.56846 | 16298 ft | 265 kts | 51° |
| 2026-05-06 13:36 | 50.74234 | -4.54546 | 16710 ft | 267 kts | 50° |
| 2026-05-06 13:37 | 50.75393 | -4.52197 | 17103 ft | 269 kts | 50° |
| 2026-05-06 13:37 | 50.76545 | -4.49860 | 17484 ft | 271 kts | 50° |
| 2026-05-06 13:37 | 50.77711 | -4.47494 | 17865 ft | 274 kts | 50° |
| 2026-05-06 13:37 | 50.78889 | -4.45100 | 18227 ft | 276 kts | 50° |
| 2026-05-06 13:38 | 50.80062 | -4.42715 | 18589 ft | 277 kts | 50° |
| 2026-05-06 13:38 | 50.81248 | -4.40300 | 18955 ft | 279 kts | 50° |
| 2026-05-06 13:38 | 50.82430 | -4.37892 | 19315 ft | 279 kts | 50° |
| 2026-05-06 13:38 | 50.83616 | -4.35472 | 19672 ft | 280 kts | 50° |
| 2026-05-06 13:39 | 50.84805 | -4.33044 | 20021 ft | 280 kts | 51° |
| 2026-05-06 13:39 | 50.86002 | -4.30597 | 20361 ft | 279 kts | 51° |
| 2026-05-06 13:39 | 50.87172 | -4.28203 | 20676 ft | 279 kts | 51° |
| 2026-05-06 13:39 | 50.88366 | -4.25760 | 20984 ft | 278 kts | 51° |
| 2026-05-06 13:40 | 50.89930 | -4.22554 | 21368 ft | 278 kts | 51° |
| 2026-05-06 13:40 | 50.90724 | -4.20925 | 21557 ft | 278 kts | 51° |
| 2026-05-06 13:40 | 50.91890 | -4.18531 | 21822 ft | 278 kts | 51° |
| 2026-05-06 13:40 | 50.93072 | -4.16103 | 21945 ft | 283 kts | 50° |
| 2026-05-06 13:41 | 50.94293 | -4.13593 | 21981 ft | 291 kts | 51° |
| 2026-05-06 13:41 | 50.95557 | -4.10994 | 21990 ft | 300 kts | 50° |
| 2026-05-06 13:41 | 50.96841 | -4.08352 | 21994 ft | 309 kts | 50° |
| 2026-05-06 13:41 | 50.98165 | -4.05621 | 21995 ft | 317 kts | 51° |
| 2026-05-06 13:42 | 50.99516 | -4.02830 | 21993 ft | 323 kts | 51° |
| 2026-05-06 13:42 | 51.00906 | -3.99955 | 21993 ft | 329 kts | 51° |
| 2026-05-06 13:42 | 51.02301 | -3.97069 | 21992 ft | 334 kts | 51° |
| 2026-05-06 13:42 | 51.03706 | -3.94155 | 21992 ft | 338 kts | 51° |
| 2026-05-06 13:43 | 51.05148 | -3.91163 | 21989 ft | 341 kts | 51° |
| 2026-05-06 13:43 | 51.06593 | -3.88160 | 21989 ft | 344 kts | 51° |
| 2026-05-06 13:43 | 51.08043 | -3.85143 | 21988 ft | 346 kts | 51° |
| 2026-05-06 13:43 | 51.09499 | -3.82109 | 21991 ft | 347 kts | 51° |
| 2026-05-06 13:44 | 51.10971 | -3.79040 | 21989 ft | 349 kts | 51° |
| 2026-05-06 13:44 | 51.12447 | -3.75959 | 21988 ft | 350 kts | 51° |
| 2026-05-06 13:44 | 51.13911 | -3.72897 | 21987 ft | 350 kts | 51° |
| 2026-05-06 13:44 | 51.15379 | -3.69826 | 21988 ft | 351 kts | 51° |
| 2026-05-06 13:45 | 51.16859 | -3.66725 | 21992 ft | 351 kts | 51° |
| 2026-05-06 13:45 | 51.19801 | -3.60552 | 21984 ft | 352 kts | 51° |
| 2026-05-06 13:45 | 51.21292 | -3.57417 | 21988 ft | 352 kts | 51° |
| 2026-05-06 13:46 | 51.22794 | -3.54381 | 21985 ft | 351 kts | 45° |
| 2026-05-06 13:46 | 51.24774 | -3.52207 | 22001 ft | 344 kts | 19° |
| 2026-05-06 13:46 | 51.27068 | -3.51393 | 22022 ft | 341 kts | 6° |
| 2026-05-06 13:46 | 51.29406 | -3.50893 | 22007 ft | 342 kts | 5° |
| 2026-05-06 13:47 | 51.31783 | -3.50410 | 22002 ft | 343 kts | 5° |
| 2026-05-06 13:47 | 51.34145 | -3.49938 | 22000 ft | 343 kts | 5° |
| 2026-05-06 13:47 | 51.36503 | -3.49469 | 22000 ft | 344 kts | 5° |
| 2026-05-06 13:47 | 51.38875 | -3.48997 | 22002 ft | 344 kts | 5° |
| 2026-05-06 13:48 | 51.41235 | -3.48528 | 22004 ft | 344 kts | 5° |
| 2026-05-06 13:48 | 51.43630 | -3.48052 | 22005 ft | 344 kts | 5° |
| 2026-05-06 13:48 | 51.45990 | -3.47584 | 22007 ft | 343 kts | 5° |
| 2026-05-06 13:48 | 51.48342 | -3.47117 | 22008 ft | 343 kts | 5° |
| 2026-05-06 13:49 | 51.50709 | -3.46647 | 22007 ft | 344 kts | 5° |
| 2026-05-06 13:49 | 51.53074 | -3.46177 | 22007 ft | 344 kts | 5° |
| 2026-05-06 13:49 | 51.55456 | -3.45703 | 22009 ft | 344 kts | 5° |
| 2026-05-06 13:49 | 51.57828 | -3.45231 | 22013 ft | 344 kts | 5° |
| 2026-05-06 13:50 | 51.60194 | -3.44760 | 22012 ft | 344 kts | 5° |
| 2026-05-06 13:50 | 51.62558 | -3.44288 | 22009 ft | 344 kts | 5° |
| 2026-05-06 13:50 | 51.64932 | -3.43814 | 22007 ft | 345 kts | 5° |
| 2026-05-06 13:50 | 51.67307 | -3.43339 | 22012 ft | 345 kts | 5° |
| 2026-05-06 13:51 | 51.69678 | -3.42866 | 22006 ft | 344 kts | 5° |
| 2026-05-06 13:51 | 51.72069 | -3.42387 | 22004 ft | 344 kts | 5° |
| 2026-05-06 13:51 | 51.74442 | -3.41912 | 22005 ft | 344 kts | 5° |
| 2026-05-06 13:51 | 51.76803 | -3.41438 | 22002 ft | 344 kts | 5° |
| 2026-05-06 13:52 | 51.79187 | -3.40960 | 22000 ft | 344 kts | 5° |
| 2026-05-06 13:52 | 51.81538 | -3.40487 | 21999 ft | 344 kts | 5° |
| 2026-05-06 13:52 | 51.83910 | -3.40010 | 21999 ft | 344 kts | 5° |
| 2026-05-06 13:52 | 51.86290 | -3.39531 | 22001 ft | 344 kts | 5° |
| 2026-05-06 13:53 | 51.88658 | -3.39053 | 22001 ft | 344 kts | 5° |
| 2026-05-06 13:53 | 51.91045 | -3.38571 | 22000 ft | 344 kts | 4° |
| 2026-05-06 13:53 | 51.93426 | -3.38096 | 21999 ft | 344 kts | 4° |
| 2026-05-06 13:53 | 51.95794 | -3.37839 | 22005 ft | 343 kts | 360° |
| 2026-05-06 13:54 | 51.98161 | -3.37701 | 22001 ft | 343 kts | 359° |
| 2026-05-06 13:54 | 52.00558 | -3.37558 | 22003 ft | 343 kts | 359° |
| 2026-05-06 13:54 | 52.02947 | -3.37409 | 22003 ft | 343 kts | 360° |
| 2026-05-06 13:54 | 52.05309 | -3.37255 | 22001 ft | 343 kts | 360° |
| 2026-05-06 13:55 | 52.07697 | -3.37095 | 22001 ft | 343 kts | 360° |
| 2026-05-06 13:55 | 52.10063 | -3.36933 | 22003 ft | 343 kts | 360° |
| 2026-05-06 13:55 | 52.12445 | -3.36767 | 22004 ft | 343 kts | 360° |
| 2026-05-06 13:55 | 52.14846 | -3.36598 | 22001 ft | 343 kts | 360° |
| 2026-05-06 13:56 | 52.17203 | -3.36431 | 22001 ft | 343 kts | 360° |
| 2026-05-06 13:56 | 52.19603 | -3.36259 | 22000 ft | 343 kts | 360° |
| 2026-05-06 13:56 | 52.21974 | -3.36089 | 21997 ft | 343 kts | 360° |
| 2026-05-06 13:56 | 52.24340 | -3.35918 | 21997 ft | 344 kts | 360° |
| 2026-05-06 13:57 | 52.26750 | -3.35744 | 21996 ft | 344 kts | 360° |
| 2026-05-06 13:57 | 52.29118 | -3.35572 | 22000 ft | 344 kts | 360° |
| 2026-05-06 13:57 | 52.31517 | -3.35397 | 22001 ft | 343 kts | 360° |
| 2026-05-06 13:57 | 52.33883 | -3.35224 | 22002 ft | 343 kts | 360° |
| 2026-05-06 13:58 | 52.36258 | -3.35050 | 22001 ft | 343 kts | 360° |
| 2026-05-06 13:58 | 52.38647 | -3.34875 | 22002 ft | 343 kts | 0° |
| 2026-05-06 13:58 | 52.41052 | -3.34698 | 22002 ft | 343 kts | 0° |
| 2026-05-06 13:58 | 52.43427 | -3.34524 | 22002 ft | 343 kts | 0° |
| 2026-05-06 13:59 | 52.45790 | -3.34350 | 22002 ft | 343 kts | 0° |
| 2026-05-06 13:59 | 52.48161 | -3.34176 | 22004 ft | 343 kts | 0° |
| 2026-05-06 13:59 | 52.50568 | -3.33998 | 22004 ft | 343 kts | 0° |
| 2026-05-06 13:59 | 52.52919 | -3.33825 | 22004 ft | 343 kts | 0° |
| 2026-05-06 14:00 | 52.55306 | -3.33648 | 22004 ft | 343 kts | 0° |
| 2026-05-06 14:00 | 52.57648 | -3.33475 | 21994 ft | 334 kts | 0° |
| 2026-05-06 14:00 | 52.59953 | -3.33306 | 21891 ft | 325 kts | 0° |
| 2026-05-06 14:00 | 52.62177 | -3.33132 | 21609 ft | 321 kts | 2° |
| 2026-05-06 14:01 | 52.64343 | -3.32371 | 21290 ft | 321 kts | 16° |
| 2026-05-06 14:01 | 52.66448 | -3.31133 | 20932 ft | 317 kts | 17° |
| 2026-05-06 14:01 | 52.68492 | -3.29901 | 20589 ft | 314 kts | 17° |
| 2026-05-06 14:01 | 52.70522 | -3.28671 | 20250 ft | 310 kts | 18° |
| 2026-05-06 14:02 | 52.72546 | -3.27446 | 19914 ft | 307 kts | 18° |
| 2026-05-06 14:02 | 52.74503 | -3.26266 | 19479 ft | 302 kts | 17° |
| 2026-05-06 14:02 | 52.76488 | -3.25078 | 18840 ft | 299 kts | 17° |
| 2026-05-06 14:02 | 52.78431 | -3.23915 | 18166 ft | 299 kts | 17° |
| 2026-05-06 14:03 | 52.80352 | -3.22761 | 17727 ft | 296 kts | 17° |
| 2026-05-06 14:03 | 52.82295 | -3.21591 | 17266 ft | 293 kts | 17° |
| 2026-05-06 14:03 | 52.84193 | -3.20448 | 16796 ft | 290 kts | 17° |
| 2026-05-06 14:03 | 52.86069 | -3.19318 | 16339 ft | 288 kts | 17° |
| 2026-05-06 14:04 | 52.87926 | -3.18200 | 15890 ft | 286 kts | 17° |
| 2026-05-06 14:04 | 52.89824 | -3.17318 | 15401 ft | 281 kts | 5° |
| 2026-05-06 14:04 | 52.91747 | -3.17097 | 14950 ft | 278 kts | 0° |
| 2026-05-06 14:04 | 52.93661 | -3.16962 | 14595 ft | 276 kts | 0° |
| 2026-05-06 14:05 | 52.95568 | -3.16829 | 14241 ft | 274 kts | 0° |
| 2026-05-06 14:05 | 52.97461 | -3.16694 | 13918 ft | 273 kts | 0° |
| 2026-05-06 14:05 | 52.99356 | -3.16555 | 13624 ft | 271 kts | 0° |
| 2026-05-06 14:05 | 53.01226 | -3.16415 | 13317 ft | 269 kts | 0° |
| 2026-05-06 14:06 | 53.03106 | -3.16273 | 12997 ft | 268 kts | 0° |
| 2026-05-06 14:06 | 53.04952 | -3.16132 | 12694 ft | 267 kts | 0° |
| 2026-05-06 14:06 | 53.06792 | -3.15989 | 12366 ft | 267 kts | 0° |
| 2026-05-06 14:06 | 53.08645 | -3.15844 | 12119 ft | 266 kts | 1° |
| 2026-05-06 14:07 | 53.10490 | -3.15698 | 11903 ft | 265 kts | 1° |
| 2026-05-06 14:07 | 53.12345 | -3.15550 | 11662 ft | 267 kts | 1° |
| 2026-05-06 14:07 | 53.14197 | -3.15403 | 11417 ft | 269 kts | 1° |
| 2026-05-06 14:07 | 53.16057 | -3.15256 | 11171 ft | 270 kts | 1° |
| 2026-05-06 14:08 | 53.17934 | -3.15107 | 10926 ft | 271 kts | 1° |
| 2026-05-06 14:08 | 53.19822 | -3.14956 | 10771 ft | 270 kts | 1° |
| 2026-05-06 14:08 | 53.21670 | -3.14808 | 10647 ft | 269 kts | 1° |
| 2026-05-06 14:08 | 53.23535 | -3.14660 | 10518 ft | 267 kts | 1° |
| 2026-05-06 14:09 | 53.25396 | -3.14511 | 10386 ft | 266 kts | 1° |
| 2026-05-06 14:09 | 53.27255 | -3.14362 | 10253 ft | 265 kts | 1° |
| 2026-05-06 14:09 | 53.29071 | -3.14217 | 10123 ft | 264 kts | 1° |
| 2026-05-06 14:09 | 53.30904 | -3.14071 | 9990 ft | 263 kts | 1° |
| 2026-05-06 14:10 | 53.32741 | -3.13923 | 9857 ft | 262 kts | 1° |
| 2026-05-06 14:10 | 53.34563 | -3.13778 | 9722 ft | 262 kts | 1° |
| 2026-05-06 14:10 | 53.36387 | -3.13632 | 9586 ft | 261 kts | 1° |
| 2026-05-06 14:10 | 53.38188 | -3.13323 | 9441 ft | 262 kts | 14° |
| 2026-05-06 14:11 | 53.39686 | -3.11715 | 9296 ft | 264 kts | 48° |
| 2026-05-06 14:11 | 53.40502 | -3.08964 | 9166 ft | 265 kts | 76° |
| 2026-05-06 14:11 | 53.40482 | -3.05908 | 9037 ft | 266 kts | 103° |
| 2026-05-06 14:11 | 53.39732 | -3.03089 | 8849 ft | 269 kts | 119° |
| 2026-05-06 14:12 | 53.38784 | -3.00365 | 8608 ft | 272 kts | 120° |
| 2026-05-06 14:12 | 53.37824 | -2.97639 | 8370 ft | 274 kts | 120° |
| 2026-05-06 14:12 | 53.36859 | -2.94919 | 8124 ft | 268 kts | 120° |
| 2026-05-06 14:12 | 53.35922 | -2.92277 | 7857 ft | 255 kts | 120° |
| 2026-05-06 14:13 | 53.35041 | -2.89800 | 7592 ft | 244 kts | 120° |
| 2026-05-06 14:13 | 53.34199 | -2.87446 | 7324 ft | 232 kts | 120° |
| 2026-05-06 14:13 | 53.33382 | -2.85168 | 7048 ft | 221 kts | 120° |
| 2026-05-06 14:13 | 53.32610 | -2.83025 | 6770 ft | 210 kts | 120° |
| 2026-05-06 14:14 | 53.31871 | -2.80995 | 6495 ft | 202 kts | 120° |
| 2026-05-06 14:14 | 53.31131 | -2.78988 | 6244 ft | 205 kts | 120° |
| 2026-05-06 14:14 | 53.30380 | -2.76957 | 5995 ft | 207 kts | 120° |
| 2026-05-06 14:14 | 53.29629 | -2.74930 | 5746 ft | 208 kts | 120° |
| 2026-05-06 14:15 | 53.28865 | -2.72876 | 5496 ft | 209 kts | 120° |
| 2026-05-06 14:15 | 53.28099 | -2.70815 | 5247 ft | 209 kts | 120° |
| 2026-05-06 14:15 | 53.27325 | -2.68731 | 4992 ft | 209 kts | 120° |
| 2026-05-06 14:15 | 53.26572 | -2.66710 | 4738 ft | 207 kts | 120° |
| 2026-05-06 14:16 | 53.25811 | -2.64672 | 4478 ft | 205 kts | 120° |
| 2026-05-06 14:16 | 53.25079 | -2.62709 | 4210 ft | 195 kts | 119° |
| 2026-05-06 14:16 | 53.24382 | -2.60843 | 3968 ft | 187 kts | 120° |
| 2026-05-06 14:16 | 53.23690 | -2.59022 | 3826 ft | 184 kts | 120° |
| 2026-05-06 14:17 | 53.23019 | -2.57191 | 3691 ft | 184 kts | 113° |
| 2026-05-06 14:17 | 53.22809 | -2.55118 | 3562 ft | 183 kts | 85° |
| 2026-05-06 14:17 | 53.22901 | -2.53019 | 3455 ft | 179 kts | 79° |
| 2026-05-06 14:17 | 53.23440 | -2.51240 | 3276 ft | 175 kts | 49° |
| 2026-05-06 14:18 | 53.24234 | -2.49722 | 3028 ft | 172 kts | 52° |
| 2026-05-06 14:18 | 53.24941 | -2.48150 | 2758 ft | 166 kts | 53° |
| 2026-05-06 14:18 | 53.25632 | -2.46673 | 2572 ft | 160 kts | 51° |
| 2026-05-06 14:18 | 53.26324 | -2.45231 | 2342 ft | 158 kts | 52° |
| 2026-05-06 14:19 | 53.27003 | -2.43820 | 2123 ft | 156 kts | 51° |
| 2026-05-06 14:19 | 53.27681 | -2.42419 | 1909 ft | 153 kts | 52° |
| 2026-05-06 14:19 | 53.28342 | -2.41055 | 1703 ft | 150 kts | 52° |
| 2026-05-06 14:19 | 53.29001 | -2.39691 | 1542 ft | 150 kts | 52° |
| 2026-05-06 14:20 | 53.29649 | -2.38354 | 1333 ft | 149 kts | 51° |
| 2026-05-06 14:20 | 53.30303 | -2.37044 | 1104 ft | 145 kts | 50° |
| 2026-05-06 14:20 | 53.30936 | -2.35757 | 905 ft | 143 kts | 51° |
| 2026-05-06 14:20 | 53.31560 | -2.34471 | 743 ft | 142 kts | 52° |
| 2026-05-06 14:21 | 53.32185 | -2.33163 | 548 ft | 143 kts | 52° |
| 2026-05-06 14:21 | 53.32812 | -2.31875 | 359 ft | 142 kts | 53° |
| 2026-05-06 14:21 | 53.33418 | -2.30611 | 197 ft | 137 kts | 53° |
| 2026-05-06 14:21 | 53.33960 | -2.29486 | 202 ft | 95 kts | 51° |
| 2026-05-06 14:22 | 53.34280 | -2.28822 | 213 ft | 51 kts | 51° |
| 2026-05-06 14:22 | 53.34449 | -2.28580 | 219 ft | 25 kts | 28° |
| 2026-05-06 14:22 | 53.34586 | -2.28485 | 222 ft | 17 kts | 21° |
| 2026-05-06 14:22 | 53.34681 | -2.28420 | 224 ft | 12 kts | 24° |
| 2026-05-06 14:23 | 53.34733 | -2.28356 | 226 ft | 6 kts | 51° |
| 2026-05-06 14:23 | 53.34761 | -2.28295 | 227 ft | 8 kts | 52° |
| 2026-05-06 14:23 | 53.34810 | -2.28189 | 229 ft | 13 kts | 50° |
| 2026-05-06 14:23 | 53.34882 | -2.28048 | 232 ft | 18 kts | 51° |
| 2026-05-06 14:24 | 53.34974 | -2.27858 | 235 ft | 23 kts | 51° |
| 2026-05-06 14:24 | 53.35062 | -2.27678 | 239 ft | 16 kts | 51° |
| 2026-05-06 14:24 | 53.35119 | -2.27560 | 242 ft | 10 kts | 52° |
| 2026-05-06 14:24 | 53.35163 | -2.27467 | 244 ft | 12 kts | 51° |
| 2026-05-06 14:25 | 53.35228 | -2.27332 | 247 ft | 17 kts | 51° |
| 2026-05-06 14:25 | 53.35310 | -2.27161 | 250 ft | 18 kts | 51° |
| 2026-05-06 14:25 | 53.35384 | -2.27008 | 254 ft | 14 kts | 51° |
| 2026-05-06 14:25 | 53.35447 | -2.26896 | 256 ft | 13 kts | 24° |
| 2026-05-06 14:26 | 53.35525 | -2.26956 | 255 ft | 12 kts | 322° |
| 2026-05-06 14:26 | 53.35596 | -2.27051 | 254 ft | 14 kts | 320° |
| 2026-05-06 14:26 | 53.35665 | -2.27143 | 252 ft | 10 kts | 321° |
| 2026-05-06 14:26 | 53.35720 | -2.27205 | 250 ft | 8 kts | 350° |
| 2026-05-06 14:27 | 53.35747 | -2.27190 | 251 ft | 0 kts | 49° |
| 2026-05-06 14:27 | 53.35747 | -2.27189 | 251 ft | 0 kts | 49° |
| 2026-05-06 14:27 | 53.35751 | -2.27183 | 251 ft | 2 kts | 50° |
| 2026-05-06 14:27 | 53.35779 | -2.27124 | 251 ft | 10 kts | 51° |
| 2026-05-06 14:28 | 53.35829 | -2.27008 | 254 ft | 11 kts | 64° |
| 2026-05-06 14:28 | 53.35870 | -2.26896 | 256 ft | 11 kts | 51° |
| 2026-05-06 14:28 | 53.35916 | -2.26847 | 256 ft | 5 kts | 7° |
| 2026-05-06 14:28 | 53.35933 | -2.26876 | 256 ft | 3 kts | 272° |
| 2026-05-06 14:29 | 53.35933 | -2.26924 | 255 ft | 4 kts | 271° |
| 2026-05-06 14:29 | 53.35934 | -2.26980 | 254 ft | 4 kts | 273° |
| 2026-05-06 14:29 | 53.35935 | -2.26999 | 254 ft | 0 kts | 272° |